sensor_id;sensor_type;location;lat;lon;timestamp;pressure;altitude;pressure_sealevel;temperature
42673;BMP280;28284;46.514;30.724;2023-07-09T00:01:12;100322.06;;;23.05
42673;BMP280;28284;46.514;30.724;2023-07-09T00:03:38;100318.84;;;23.06
42673;BMP280;28284;46.514;30.724;2023-07-09T00:06:03;100328.03;;;23.03
42673;BMP280;28284;46.514;30.724;2023-07-09T00:08:29;100295.69;;;23.04
42673;BMP280;28284;46.514;30.724;2023-07-09T00:10:56;100311.19;;;23.01
42673;BMP280;28284;46.514;30.724;2023-07-09T00:13:22;100313.38;;;22.97
42673;BMP280;28284;46.514;30.724;2023-07-09T00:15:47;100310.31;;;22.95
42673;BMP280;28284;46.514;30.724;2023-07-09T00:18:13;100321.66;;;22.97
42673;BMP280;28284;46.514;30.724;2023-07-09T00:20:38;100318.91;;;22.97
42673;BMP280;28284;46.514;30.724;2023-07-09T00:23:03;100321.66;;;22.97
42673;BMP280;28284;46.514;30.724;2023-07-09T00:25:29;100317.06;;;22.94
42673;BMP280;28284;46.514;30.724;2023-07-09T00:27:55;100324.78;;;22.91
42673;BMP280;28284;46.514;30.724;2023-07-09T00:30:21;100319.25;;;22.91
42673;BMP280;28284;46.514;30.724;2023-07-09T00:32:50;100321.41;;;22.87
42673;BMP280;28284;46.514;30.724;2023-07-09T00:35:17;100317.28;;;22.91
42673;BMP280;28284;46.514;30.724;2023-07-09T00:37:42;100314.94;;;22.90
42673;BMP280;28284;46.514;30.724;2023-07-09T00:40:19;100321.59;;;22.83
42673;BMP280;28284;46.514;30.724;2023-07-09T00:42:45;100306.47;;;22.70
42673;BMP280;28284;46.514;30.724;2023-07-09T00:45:24;100318.63;;;22.63
42673;BMP280;28284;46.514;30.724;2023-07-09T00:50:26;100301.38;;;22.45
42673;BMP280;28284;46.514;30.724;2023-07-09T00:52:56;100311.19;;;22.46
42673;BMP280;28284;46.514;30.724;2023-07-09T00:55:23;100312.75;;;22.38
42673;BMP280;28284;46.514;30.724;2023-07-09T00:57:49;100307.56;;;22.31
42673;BMP280;28284;46.514;30.724;2023-07-09T01:00:21;100317.38;;;22.23
42673;BMP280;28284;46.514;30.724;2023-07-09T01:02:47;100316.94;;;22.16
42673;BMP280;28284;46.514;30.724;2023-07-09T01:05:13;100324.19;;;22.13
42673;BMP280;28284;46.514;30.724;2023-07-09T01:07:41;100313.59;;;22.12
42673;BMP280;28284;46.514;30.724;2023-07-09T01:10:06;100319.59;;;22.10
42673;BMP280;28284;46.514;30.724;2023-07-09T01:12:32;100314.06;;;22.10
42673;BMP280;28284;46.514;30.724;2023-07-09T01:14:57;100313.28;;;22.10
42673;BMP280;28284;46.514;30.724;2023-07-09T01:17:24;100322.03;;;22.08
42673;BMP280;28284;46.514;30.724;2023-07-09T01:19:53;100316.69;;;22.05
42673;BMP280;28284;46.514;30.724;2023-07-09T01:22:19;100314.84;;;22.02
42673;BMP280;28284;46.514;30.724;2023-07-09T01:24:56;100309.84;;;22.00
42673;BMP280;28284;46.514;30.724;2023-07-09T01:27:45;100316.41;;;21.94
42673;BMP280;28284;46.514;30.724;2023-07-09T01:30:23;100316.44;;;21.85
42673;BMP280;28284;46.514;30.724;2023-07-09T01:32:49;100315.50;;;21.79
42673;BMP280;28284;46.514;30.724;2023-07-09T01:35:15;100319.47;;;21.78
42673;BMP280;28284;46.514;30.724;2023-07-09T01:37:42;100313.53;;;21.71
42673;BMP280;28284;46.514;30.724;2023-07-09T01:40:08;100313.38;;;21.65
42673;BMP280;28284;46.514;30.724;2023-07-09T01:42:34;100303.41;;;21.59
42673;BMP280;28284;46.514;30.724;2023-07-09T01:45:00;100313.97;;;21.51
42673;BMP280;28284;46.514;30.724;2023-07-09T01:47:26;100313.84;;;21.46
42673;BMP280;28284;46.514;30.724;2023-07-09T01:49:52;100317.19;;;21.41
42673;BMP280;28284;46.514;30.724;2023-07-09T01:52:22;100311.81;;;21.37
42673;BMP280;28284;46.514;30.724;2023-07-09T01:54:48;100316.59;;;21.37
42673;BMP280;28284;46.514;30.724;2023-07-09T01:57:20;100311.06;;;21.37
42673;BMP280;28284;46.514;30.724;2023-07-09T01:59:48;100308.31;;;21.37
42673;BMP280;28284;46.514;30.724;2023-07-09T02:02:13;100304.63;;;21.40
42673;BMP280;28284;46.514;30.724;2023-07-09T02:04:44;100307.38;;;21.40
42673;BMP280;28284;46.514;30.724;2023-07-09T02:07:09;100299.88;;;21.40
42673;BMP280;28284;46.514;30.724;2023-07-09T02:09:35;100304.63;;;21.40
42673;BMP280;28284;46.514;30.724;2023-07-09T02:12:00;100314.75;;;21.43
42673;BMP280;28284;46.514;30.724;2023-07-09T02:14:27;100319.03;;;21.44
42673;BMP280;28284;46.514;30.724;2023-07-09T02:16:53;100310.47;;;21.42
42673;BMP280;28284;46.514;30.724;2023-07-09T02:19:18;100319.16;;;21.40
42673;BMP280;28284;46.514;30.724;2023-07-09T02:21:43;100319.94;;;21.41
42673;BMP280;28284;46.514;30.724;2023-07-09T02:24:08;100328.84;;;21.45
42673;BMP280;28284;46.514;30.724;2023-07-09T02:26:34;100327.28;;;21.44
42673;BMP280;28284;46.514;30.724;2023-07-09T02:28:59;100325.28;;;21.44
42673;BMP280;28284;46.514;30.724;2023-07-09T02:31:25;100323.03;;;21.43
42673;BMP280;28284;46.514;30.724;2023-07-09T02:33:50;100322.53;;;21.44
42673;BMP280;28284;46.514;30.724;2023-07-09T02:36:16;100315.47;;;21.43
42673;BMP280;28284;46.514;30.724;2023-07-09T02:38:41;100326.84;;;21.45
42673;BMP280;28284;46.514;30.724;2023-07-09T02:41:06;100327.16;;;21.47
42673;BMP280;28284;46.514;30.724;2023-07-09T02:43:32;100330.97;;;21.50
42673;BMP280;28284;46.514;30.724;2023-07-09T02:45:57;100334.81;;;21.52
42673;BMP280;28284;46.514;30.724;2023-07-09T02:48:22;100329.13;;;21.56
42673;BMP280;28284;46.514;30.724;2023-07-09T02:50:47;100338.19;;;21.56
42673;BMP280;28284;46.514;30.724;2023-07-09T02:53:13;100341.25;;;21.58
42673;BMP280;28284;46.514;30.724;2023-07-09T02:55:38;100327.75;;;21.60
42673;BMP280;28284;46.514;30.724;2023-07-09T02:58:03;100336.78;;;21.61
42673;BMP280;28284;46.514;30.724;2023-07-09T03:00:29;100327.28;;;21.62
42673;BMP280;28284;46.514;30.724;2023-07-09T03:02:54;100324.88;;;21.64
42673;BMP280;28284;46.514;30.724;2023-07-09T03:05:19;100314.44;;;21.68
42673;BMP280;28284;46.514;30.724;2023-07-09T03:07:44;100328.84;;;21.72
42673;BMP280;28284;46.514;30.724;2023-07-09T03:10:10;100325.16;;;21.75
42673;BMP280;28284;46.514;30.724;2023-07-09T03:12:35;100323.47;;;21.77
42673;BMP280;28284;46.514;30.724;2023-07-09T03:15:00;100323.31;;;21.80
42673;BMP280;28284;46.514;30.724;2023-07-09T03:17:25;100319.34;;;21.81
42673;BMP280;28284;46.514;30.724;2023-07-09T03:19:51;100328.19;;;21.85
42673;BMP280;28284;46.514;30.724;2023-07-09T03:22:16;100324.53;;;21.88
42673;BMP280;28284;46.514;30.724;2023-07-09T03:24:41;100330.19;;;21.94
42673;BMP280;28284;46.514;30.724;2023-07-09T03:27:07;100325.75;;;21.96
42673;BMP280;28284;46.514;30.724;2023-07-09T03:29:33;100320.06;;;22.00
42673;BMP280;28284;46.514;30.724;2023-07-09T03:31:58;100327.41;;;22.03
42673;BMP280;28284;46.514;30.724;2023-07-09T03:34:23;100331.56;;;22.07
42673;BMP280;28284;46.514;30.724;2023-07-09T03:36:49;100328.16;;;22.12
42673;BMP280;28284;46.514;30.724;2023-07-09T03:39:14;100323.25;;;22.16
42673;BMP280;28284;46.514;30.724;2023-07-09T03:41:39;100326.59;;;22.20
42673;BMP280;28284;46.514;30.724;2023-07-09T03:44:05;100336.25;;;22.25
42673;BMP280;28284;46.514;30.724;2023-07-09T03:46:30;100336.41;;;22.30
42673;BMP280;28284;46.514;30.724;2023-07-09T03:48:57;100344.53;;;22.34
42673;BMP280;28284;46.514;30.724;2023-07-09T03:51:23;100332.81;;;22.38
42673;BMP280;28284;46.514;30.724;2023-07-09T03:53:48;100343.25;;;22.43
42673;BMP280;28284;46.514;30.724;2023-07-09T03:56:13;100347.06;;;22.46
42673;BMP280;28284;46.514;30.724;2023-07-09T03:58:39;100347.19;;;22.51
42673;BMP280;28284;46.514;30.724;2023-07-09T04:01:04;100351.63;;;22.58
42673;BMP280;28284;46.514;30.724;2023-07-09T04:03:29;100354.03;;;22.65
42673;BMP280;28284;46.514;30.724;2023-07-09T04:05:55;100352.00;;;22.74
42673;BMP280;28284;46.514;30.724;2023-07-09T04:08:20;100358.34;;;22.89
42673;BMP280;28284;46.514;30.724;2023-07-09T04:10:45;100364.47;;;23.02
42673;BMP280;28284;46.514;30.724;2023-07-09T04:13:11;100351.94;;;23.15
42673;BMP280;28284;46.514;30.724;2023-07-09T04:15:36;100375.56;;;23.40
42673;BMP280;28284;46.514;30.724;2023-07-09T04:18:01;100359.13;;;23.59
42673;BMP280;28284;46.514;30.724;2023-07-09T04:20:27;100373.50;;;23.87
42673;BMP280;28284;46.514;30.724;2023-07-09T04:22:53;100380.09;;;24.18
42673;BMP280;28284;46.514;30.724;2023-07-09T04:25:18;100375.75;;;24.60
42673;BMP280;28284;46.514;30.724;2023-07-09T04:27:43;100380.53;;;25.33
42673;BMP280;28284;46.514;30.724;2023-07-09T04:30:10;100379.75;;;26.03
42673;BMP280;28284;46.514;30.724;2023-07-09T04:32:35;100370.25;;;26.46
42673;BMP280;28284;46.514;30.724;2023-07-09T04:35:01;100378.34;;;26.91
42673;BMP280;28284;46.514;30.724;2023-07-09T04:37:27;100391.69;;;27.28
42673;BMP280;28284;46.514;30.724;2023-07-09T04:39:52;100396.31;;;27.64
42673;BMP280;28284;46.514;30.724;2023-07-09T04:42:18;100397.66;;;28.12
42673;BMP280;28284;46.514;30.724;2023-07-09T04:44:44;100404.16;;;28.64
42673;BMP280;28284;46.514;30.724;2023-07-09T04:47:09;100410.84;;;29.12
42673;BMP280;28284;46.514;30.724;2023-07-09T04:49:34;100404.84;;;29.42
42673;BMP280;28284;46.514;30.724;2023-07-09T04:52:00;100414.69;;;29.89
42673;BMP280;28284;46.514;30.724;2023-07-09T04:54:26;100424.69;;;30.08
42673;BMP280;28284;46.514;30.724;2023-07-09T04:56:51;100413.47;;;30.14
42673;BMP280;28284;46.514;30.724;2023-07-09T04:59:16;100408.31;;;30.23
42673;BMP280;28284;46.514;30.724;2023-07-09T05:01:41;100425.66;;;30.40
42673;BMP280;28284;46.514;30.724;2023-07-09T05:04:07;100431.38;;;30.53
42673;BMP280;28284;46.514;30.724;2023-07-09T05:06:33;100437.97;;;30.79
42673;BMP280;28284;46.514;30.724;2023-07-09T05:08:58;100439.53;;;31.16
42673;BMP280;28284;46.514;30.724;2023-07-09T05:11:23;100441.28;;;31.69
42673;BMP280;28284;46.514;30.724;2023-07-09T05:13:49;100450.28;;;32.11
42673;BMP280;28284;46.514;30.724;2023-07-09T05:16:14;100451.63;;;32.49
42673;BMP280;28284;46.514;30.724;2023-07-09T05:18:39;100462.88;;;32.88
42673;BMP280;28284;46.514;30.724;2023-07-09T05:21:05;100454.41;;;33.13
42673;BMP280;28284;46.514;30.724;2023-07-09T05:23:30;100466.34;;;33.27
42673;BMP280;28284;46.514;30.724;2023-07-09T05:25:56;100468.00;;;33.22
42673;BMP280;28284;46.514;30.724;2023-07-09T05:28:22;100469.94;;;33.01
42673;BMP280;28284;46.514;30.724;2023-07-09T05:30:47;100461.69;;;32.70
42673;BMP280;28284;46.514;30.724;2023-07-09T05:33:13;100458.63;;;32.30
42673;BMP280;28284;46.514;30.724;2023-07-09T05:35:38;100453.25;;;32.01
42673;BMP280;28284;46.514;30.724;2023-07-09T05:38:03;100461.22;;;31.84
42673;BMP280;28284;46.514;30.724;2023-07-09T05:40:29;100456.47;;;31.79
42673;BMP280;28284;46.514;30.724;2023-07-09T05:42:54;100450.25;;;31.99
42673;BMP280;28284;46.514;30.724;2023-07-09T05:45:19;100456.72;;;32.38
42673;BMP280;28284;46.514;30.724;2023-07-09T05:47:44;100444.09;;;32.70
42673;BMP280;28284;46.514;30.724;2023-07-09T05:50:10;100458.53;;;32.87
42673;BMP280;28284;46.514;30.724;2023-07-09T05:52:35;100455.59;;;33.05
42673;BMP280;28284;46.514;30.724;2023-07-09T05:55:00;100451.28;;;33.37
42673;BMP280;28284;46.514;30.724;2023-07-09T05:57:26;100457.16;;;33.59
42673;BMP280;28284;46.514;30.724;2023-07-09T05:59:51;100454.31;;;34.00
42673;BMP280;28284;46.514;30.724;2023-07-09T06:02:17;100461.31;;;34.26
42673;BMP280;28284;46.514;30.724;2023-07-09T06:04:43;100461.47;;;34.21
42673;BMP280;28284;46.514;30.724;2023-07-09T06:07:08;100450.81;;;33.99
42673;BMP280;28284;46.514;30.724;2023-07-09T06:09:34;100452.16;;;33.85
42673;BMP280;28284;46.514;30.724;2023-07-09T06:12:01;100453.13;;;33.88
42673;BMP280;28284;46.514;30.724;2023-07-09T06:14:26;100453.53;;;33.72
42673;BMP280;28284;46.514;30.724;2023-07-09T06:16:51;100455.03;;;34.13
42673;BMP280;28284;46.514;30.724;2023-07-09T06:19:16;100457.91;;;34.56
42673;BMP280;28284;46.514;30.724;2023-07-09T06:21:42;100459.75;;;35.38
42673;BMP280;28284;46.514;30.724;2023-07-09T06:24:07;100459.22;;;35.92
42673;BMP280;28284;46.514;30.724;2023-07-09T06:26:33;100455.16;;;36.54
42673;BMP280;28284;46.514;30.724;2023-07-09T06:28:58;100475.19;;;37.19
42673;BMP280;28284;46.514;30.724;2023-07-09T06:31:24;100477.69;;;37.88
42673;BMP280;28284;46.514;30.724;2023-07-09T06:33:49;100469.59;;;38.42
42673;BMP280;28284;46.514;30.724;2023-07-09T06:36:16;100466.03;;;38.84
42673;BMP280;28284;46.514;30.724;2023-07-09T06:38:41;100476.16;;;39.04
42673;BMP280;28284;46.514;30.724;2023-07-09T06:41:07;100478.84;;;39.38
42673;BMP280;28284;46.514;30.724;2023-07-09T06:43:34;100485.72;;;39.89
42673;BMP280;28284;46.514;30.724;2023-07-09T06:46:00;100485.88;;;40.19
42673;BMP280;28284;46.514;30.724;2023-07-09T06:48:26;100474.06;;;40.51
42673;BMP280;28284;46.514;30.724;2023-07-09T06:50:52;100481.81;;;40.69
42673;BMP280;28284;46.514;30.724;2023-07-09T06:53:18;100483.47;;;40.72
42673;BMP280;28284;46.514;30.724;2023-07-09T06:55:43;100485.13;;;40.66
42673;BMP280;28284;46.514;30.724;2023-07-09T06:58:09;100489.91;;;40.63
42673;BMP280;28284;46.514;30.724;2023-07-09T07:00:35;100480.75;;;40.74
42673;BMP280;28284;46.514;30.724;2023-07-09T07:03:01;100484.00;;;40.89
42673;BMP280;28284;46.514;30.724;2023-07-09T07:05:26;100477.75;;;40.91
42673;BMP280;28284;46.514;30.724;2023-07-09T07:07:51;100493.59;;;40.75
42673;BMP280;28284;46.514;30.724;2023-07-09T07:10:18;100494.69;;;40.70
42673;BMP280;28284;46.514;30.724;2023-07-09T07:12:45;100490.75;;;40.75
42673;BMP280;28284;46.514;30.724;2023-07-09T07:15:10;100490.31;;;40.88
42673;BMP280;28284;46.514;30.724;2023-07-09T07:17:36;100478.09;;;40.57
42673;BMP280;28284;46.514;30.724;2023-07-09T07:20:02;100488.91;;;40.12
42673;BMP280;28284;46.514;30.724;2023-07-09T07:22:27;100481.72;;;40.30
42673;BMP280;28284;46.514;30.724;2023-07-09T07:24:53;100473.50;;;40.52
42673;BMP280;28284;46.514;30.724;2023-07-09T07:27:18;100394.00;;;40.05
42673;BMP280;28284;46.514;30.724;2023-07-09T07:29:43;100464.19;;;39.77
42673;BMP280;28284;46.514;30.724;2023-07-09T07:32:10;100469.78;;;39.49
42673;BMP280;28284;46.514;30.724;2023-07-09T07:34:35;100459.81;;;39.21
42673;BMP280;28284;46.514;30.724;2023-07-09T07:37:01;100468.56;;;38.80
42673;BMP280;28284;46.514;30.724;2023-07-09T07:42:25;100484.72;;;38.54
42673;BMP280;28284;46.514;30.724;2023-07-09T07:44:50;100472.09;;;38.55
42673;BMP280;28284;46.514;30.724;2023-07-09T07:47:17;100468.38;;;38.62
42673;BMP280;28284;46.514;30.724;2023-07-09T07:49:51;100476.72;;;38.60
42673;BMP280;28284;46.514;30.724;2023-07-09T07:52:16;100471.91;;;38.53
42673;BMP280;28284;46.514;30.724;2023-07-09T07:54:42;100475.91;;;38.50
42673;BMP280;28284;46.514;30.724;2023-07-09T07:57:07;100472.84;;;38.22
42673;BMP280;28284;46.514;30.724;2023-07-09T07:59:34;100457.16;;;38.04
42673;BMP280;28284;46.514;30.724;2023-07-09T08:02:00;100448.84;;;37.89
42673;BMP280;28284;46.514;30.724;2023-07-09T08:04:25;100455.53;;;37.60
42673;BMP280;28284;46.514;30.724;2023-07-09T08:06:50;100453.88;;;37.74
42673;BMP280;28284;46.514;30.724;2023-07-09T08:09:17;100477.06;;;37.72
42673;BMP280;28284;46.514;30.724;2023-07-09T08:11:42;100448.28;;;37.66
42673;BMP280;28284;46.514;30.724;2023-07-09T08:14:08;100459.47;;;37.33
42673;BMP280;28284;46.514;30.724;2023-07-09T08:16:34;100457.13;;;37.15
42673;BMP280;28284;46.514;30.724;2023-07-09T08:18:59;100430.47;;;37.01
42673;BMP280;28284;46.514;30.724;2023-07-09T08:21:24;100473.78;;;37.03
42673;BMP280;28284;46.514;30.724;2023-07-09T08:23:49;100453.28;;;36.95
42673;BMP280;28284;46.514;30.724;2023-07-09T08:26:15;100483.09;;;36.89
42673;BMP280;28284;46.514;30.724;2023-07-09T08:28:40;100437.59;;;36.24
42673;BMP280;28284;46.514;30.724;2023-07-09T08:31:05;100448.13;;;36.01
42673;BMP280;28284;46.514;30.724;2023-07-09T08:33:31;100459.59;;;35.58
42673;BMP280;28284;46.514;30.724;2023-07-09T08:35:56;100491.53;;;35.53
42673;BMP280;28284;46.514;30.724;2023-07-09T08:38:22;100460.50;;;35.39
42673;BMP280;28284;46.514;30.724;2023-07-09T08:40:53;100484.41;;;35.53
42673;BMP280;28284;46.514;30.724;2023-07-09T08:48:36;100487.19;;;35.45
42673;BMP280;28284;46.514;30.724;2023-07-09T08:51:07;100461.59;;;35.21
42673;BMP280;28284;46.514;30.724;2023-07-09T08:53:57;100445.78;;;35.10
42673;BMP280;28284;46.514;30.724;2023-07-09T08:56:20;100484.19;;;34.86
42673;BMP280;28284;46.514;30.724;2023-07-09T08:58:46;100471.31;;;34.70
42673;BMP280;28284;46.514;30.724;2023-07-09T09:01:20;100471.06;;;34.61
42673;BMP280;28284;46.514;30.724;2023-07-09T09:06:13;100475.59;;;34.64
42673;BMP280;28284;46.514;30.724;2023-07-09T09:13:58;100455.03;;;34.68
42673;BMP280;28284;46.514;30.724;2023-07-09T09:16:30;100467.13;;;34.56
42673;BMP280;28284;46.514;30.724;2023-07-09T09:18:57;100488.00;;;34.40
42673;BMP280;28284;46.514;30.724;2023-07-09T09:21:25;100482.13;;;34.24
42673;BMP280;28284;46.514;30.724;2023-07-09T09:23:52;100487.94;;;33.85
42673;BMP280;28284;46.514;30.724;2023-07-09T09:26:21;100501.84;;;33.70
42673;BMP280;28284;46.514;30.724;2023-07-09T09:28:48;100459.69;;;33.50
42673;BMP280;28284;46.514;30.724;2023-07-09T09:31:14;100491.47;;;33.45
42673;BMP280;28284;46.514;30.724;2023-07-09T09:33:40;100487.13;;;33.44
42673;BMP280;28284;46.514;30.724;2023-07-09T09:36:11;100473.19;;;33.51
42673;BMP280;28284;46.514;30.724;2023-07-09T09:38:39;100464.84;;;33.59
42673;BMP280;28284;46.514;30.724;2023-07-09T09:41:04;100498.81;;;33.48
42673;BMP280;28284;46.514;30.724;2023-07-09T09:43:31;100473.19;;;33.51
42673;BMP280;28284;46.514;30.724;2023-07-09T09:45:57;100495.59;;;33.31
42673;BMP280;28284;46.514;30.724;2023-07-09T09:48:30;100508.28;;;33.12
42673;BMP280;28284;46.514;30.724;2023-07-09T09:50:56;100505.91;;;33.03
42673;BMP280;28284;46.514;30.724;2023-07-09T09:53:26;100475.38;;;32.87
42673;BMP280;28284;46.514;30.724;2023-07-09T09:55:52;100503.44;;;32.87
42673;BMP280;28284;46.514;30.724;2023-07-09T09:58:18;100464.81;;;32.54
42673;BMP280;28284;46.514;30.724;2023-07-09T10:00:51;100475.38;;;32.48
42673;BMP280;28284;46.514;30.724;2023-07-09T10:03:17;100493.59;;;32.54
42673;BMP280;28284;46.514;30.724;2023-07-09T10:05:50;100497.38;;;32.57
42673;BMP280;28284;46.514;30.724;2023-07-09T10:08:35;100499.78;;;32.53
42673;BMP280;28284;46.514;30.724;2023-07-09T10:13:48;100480.75;;;32.46
42673;BMP280;28284;46.514;30.724;2023-07-09T10:26:53;100494.94;;;31.60
42673;BMP280;28284;46.514;30.724;2023-07-09T10:39:30;100503.59;;;31.38
42673;BMP280;28284;46.514;30.724;2023-07-09T10:41:57;100508.53;;;31.51
42673;BMP280;28284;46.514;30.724;2023-07-09T10:44:38;100519.44;;;31.54
42673;BMP280;28284;46.514;30.724;2023-07-09T10:47:28;100515.81;;;31.59
42673;BMP280;28284;46.514;30.724;2023-07-09T10:49:50;100516.84;;;31.74
42673;BMP280;28284;46.514;30.724;2023-07-09T10:52:35;100515.72;;;31.83
42673;BMP280;28284;46.514;30.724;2023-07-09T10:57:30;100524.75;;;31.76
42673;BMP280;28284;46.514;30.724;2023-07-09T10:59:59;100518.16;;;31.73
42673;BMP280;28284;46.514;30.724;2023-07-09T11:02:25;100532.59;;;31.77
42673;BMP280;28284;46.514;30.724;2023-07-09T11:04:58;100517.91;;;31.90
42673;BMP280;28284;46.514;30.724;2023-07-09T11:07:39;100512.13;;;32.01
42673;BMP280;28284;46.514;30.724;2023-07-09T11:10:17;100521.84;;;32.00
42673;BMP280;28284;46.514;30.724;2023-07-09T11:15:25;100511.94;;;31.80
42673;BMP280;28284;46.514;30.724;2023-07-09T11:17:50;100527.53;;;31.76
42673;BMP280;28284;46.514;30.724;2023-07-09T11:20:17;100532.19;;;31.73
42673;BMP280;28284;46.514;30.724;2023-07-09T11:22:50;100512.78;;;31.75
42673;BMP280;28284;46.514;30.724;2023-07-09T11:25:15;100527.84;;;31.72
42673;BMP280;28284;46.514;30.724;2023-07-09T11:27:52;100533.91;;;31.76
42673;BMP280;28284;46.514;30.724;2023-07-09T11:30:24;100522.25;;;31.72
42673;BMP280;28284;46.514;30.724;2023-07-09T11:32:54;100520.63;;;31.58
42673;BMP280;28284;46.514;30.724;2023-07-09T11:35:24;100520.81;;;31.48
42673;BMP280;28284;46.514;30.724;2023-07-09T11:37:51;100540.94;;;31.46
42673;BMP280;28284;46.514;30.724;2023-07-09T11:40:18;100522.66;;;31.45
42673;BMP280;28284;46.514;30.724;2023-07-09T11:45:13;100546.44;;;31.33
42673;BMP280;28284;46.514;30.724;2023-07-09T11:47:44;100528.19;;;31.27
42673;BMP280;28284;46.514;30.724;2023-07-09T11:50:29;100542.28;;;31.21
42673;BMP280;28284;46.514;30.724;2023-07-09T11:52:58;100514.94;;;31.27
42673;BMP280;28284;46.514;30.724;2023-07-09T11:58:04;100530.25;;;31.26
42673;BMP280;28284;46.514;30.724;2023-07-09T12:00:30;100525.09;;;31.30
42673;BMP280;28284;46.514;30.724;2023-07-09T12:02:59;100538.03;;;31.33
42673;BMP280;28284;46.514;30.724;2023-07-09T12:05:26;100524.41;;;31.24
42673;BMP280;28284;46.514;30.724;2023-07-09T12:07:52;100509.50;;;31.16
42673;BMP280;28284;46.514;30.724;2023-07-09T12:10:19;100528.41;;;31.11
42673;BMP280;28284;46.514;30.724;2023-07-09T12:12:45;100539.38;;;31.09
42673;BMP280;28284;46.514;30.724;2023-07-09T12:15:21;100536.16;;;30.99
42673;BMP280;28284;46.514;30.724;2023-07-09T12:17:57;100515.94;;;30.88
42673;BMP280;28284;46.514;30.724;2023-07-09T12:20:23;100518.28;;;30.84
42673;BMP280;28284;46.514;30.724;2023-07-09T12:22:48;100538.09;;;30.86
42673;BMP280;28284;46.514;30.724;2023-07-09T12:25:24;100548.50;;;30.85
42673;BMP280;28284;46.514;30.724;2023-07-09T12:27:50;100552.81;;;30.86
42673;BMP280;28284;46.514;30.724;2023-07-09T12:30:16;100556.88;;;30.85
42673;BMP280;28284;46.514;30.724;2023-07-09T12:32:48;100513.50;;;30.79
42673;BMP280;28284;46.514;30.724;2023-07-09T12:35:19;100548.97;;;30.65
42673;BMP280;28284;46.514;30.724;2023-07-09T12:37:46;100550.81;;;30.58
42673;BMP280;28284;46.514;30.724;2023-07-09T12:40:20;100557.50;;;30.49
42673;BMP280;28284;46.514;30.724;2023-07-09T12:42:46;100542.56;;;30.41
42673;BMP280;28284;46.514;30.724;2023-07-09T12:45:19;100554.25;;;30.40
42673;BMP280;28284;46.514;30.724;2023-07-09T12:47:45;100554.50;;;30.42
42673;BMP280;28284;46.514;30.724;2023-07-09T12:52:46;100535.75;;;30.31
42673;BMP280;28284;46.514;30.724;2023-07-09T12:55:19;100549.28;;;30.27
42673;BMP280;28284;46.514;30.724;2023-07-09T12:57:45;100551.03;;;30.30
42673;BMP280;28284;46.514;30.724;2023-07-09T13:00:14;100543.88;;;30.35
42673;BMP280;28284;46.514;30.724;2023-07-09T13:02:41;100561.13;;;30.39
42673;BMP280;28284;46.514;30.724;2023-07-09T13:05:20;100553.50;;;30.39
42673;BMP280;28284;46.514;30.724;2023-07-09T13:07:50;100558.81;;;30.43
42673;BMP280;28284;46.514;30.724;2023-07-09T13:10:18;100556.25;;;30.45
42673;BMP280;28284;46.514;30.724;2023-07-09T13:12:48;100552.28;;;30.35
42673;BMP280;28284;46.514;30.724;2023-07-09T13:15:19;100560.66;;;30.35
42673;BMP280;28284;46.514;30.724;2023-07-09T13:17:44;100560.88;;;30.37
42673;BMP280;28284;46.514;30.724;2023-07-09T13:20:12;100531.19;;;30.34
42673;BMP280;28284;46.514;30.724;2023-07-09T13:22:37;100557.41;;;30.25
42673;BMP280;28284;46.514;30.724;2023-07-09T13:25:04;100558.69;;;30.24
42673;BMP280;28284;46.514;30.724;2023-07-09T13:27:29;100542.94;;;30.27
42673;BMP280;28284;46.514;30.724;2023-07-09T13:29:55;100527.25;;;30.18
42673;BMP280;28284;46.514;30.724;2023-07-09T13:32:20;100555.72;;;30.12
42673;BMP280;28284;46.514;30.724;2023-07-09T13:34:45;100572.06;;;30.02
42673;BMP280;28284;46.514;30.724;2023-07-09T13:37:12;100575.88;;;29.99
42673;BMP280;28284;46.514;30.724;2023-07-09T13:39:38;100531.69;;;29.98
42673;BMP280;28284;46.514;30.724;2023-07-09T13:42:04;100532.75;;;29.95
42673;BMP280;28284;46.514;30.724;2023-07-09T13:44:30;100547.97;;;29.94
42673;BMP280;28284;46.514;30.724;2023-07-09T13:46:56;100553.78;;;29.96
42673;BMP280;28284;46.514;30.724;2023-07-09T13:49:22;100543.91;;;29.95
42673;BMP280;28284;46.514;30.724;2023-07-09T13:51:48;100552.03;;;29.93
42673;BMP280;28284;46.514;30.724;2023-07-09T13:56:43;100578.97;;;29.90
42673;BMP280;28284;46.514;30.724;2023-07-09T13:59:11;100538.88;;;29.88
42673;BMP280;28284;46.514;30.724;2023-07-09T14:01:37;100575.00;;;29.80
42673;BMP280;28284;46.514;30.724;2023-07-09T14:04:03;100550.63;;;29.75
42673;BMP280;28284;46.514;30.724;2023-07-09T14:06:28;100568.88;;;29.76
42673;BMP280;28284;46.514;30.724;2023-07-09T14:08:53;100565.59;;;29.78
42673;BMP280;28284;46.514;30.724;2023-07-09T14:11:18;100565.31;;;29.81
42673;BMP280;28284;46.514;30.724;2023-07-09T14:13:44;100572.94;;;29.81
42673;BMP280;28284;46.514;30.724;2023-07-09T14:16:12;100575.47;;;29.84
42673;BMP280;28284;46.514;30.724;2023-07-09T14:18:37;100571.41;;;29.80
42673;BMP280;28284;46.514;30.724;2023-07-09T14:21:10;100580.59;;;29.75
42673;BMP280;28284;46.514;30.724;2023-07-09T14:23:36;100559.03;;;29.70
42673;BMP280;28284;46.514;30.724;2023-07-09T14:26:02;100567.91;;;29.68
42673;BMP280;28284;46.514;30.724;2023-07-09T14:28:27;100567.41;;;29.65
42673;BMP280;28284;46.514;30.724;2023-07-09T14:30:52;100588.50;;;29.60
42673;BMP280;28284;46.514;30.724;2023-07-09T14:33:18;100569.22;;;29.62
42673;BMP280;28284;46.514;30.724;2023-07-09T14:35:44;100582.16;;;29.60
42673;BMP280;28284;46.514;30.724;2023-07-09T14:38:18;100554.25;;;29.54
42673;BMP280;28284;46.514;30.724;2023-07-09T14:40:44;100549.97;;;29.48